RYR6831 LZIB-LIBD
Flight info
| Callsign | RYR6831 |
|---|---|
| Flight time | 1h 16m |
| Altitude | 38000 |
| Route | VAMOG DCT SIRDU DCT KOPRY DCT TIVNU DCT DIXUM DCT ORAKA DCT AIOSA DCT BANAV |
| Aircraft | B738/M-SDE2E3FGHIRWXY/LB1 |
Departure
| Time | 2026-04-21 12:29 |
|---|---|
| Airport | M. R. Štefánik Airport (LZIB) |
Arrival
| Time | 2026-04-21 13:45 |
|---|---|
| Airport | Bari Karol Wojtyła International Airport (LIBD) |
| Time | Latitude | Longitude | Altitude | Speed | Heading |
|---|---|---|---|---|---|
| 2026-04-21 12:07 | 48.16915 | 17.20090 | 431 ft | 0 kts | 314° |
| 2026-04-21 12:17 | 48.16913 | 17.20093 | 422 ft | 3 kts | 315° |
| 2026-04-21 12:17 | 48.16893 | 17.20117 | 426 ft | 4 kts | 338° |
| 2026-04-21 12:18 | 48.16867 | 17.20123 | 425 ft | 4 kts | 10° |
| 2026-04-21 12:18 | 48.16847 | 17.20110 | 418 ft | 1 kts | 44° |
| 2026-04-21 12:18 | 48.16846 | 17.20109 | 418 ft | 1 kts | 44° |
| 2026-04-21 12:22 | 48.16850 | 17.20115 | 418 ft | 3 kts | 44° |
| 2026-04-21 12:22 | 48.16852 | 17.20153 | 424 ft | 5 kts | 136° |
| 2026-04-21 12:22 | 48.16811 | 17.20212 | 428 ft | 11 kts | 136° |
| 2026-04-21 12:22 | 48.16743 | 17.20311 | 423 ft | 16 kts | 136° |
| 2026-04-21 12:23 | 48.16722 | 17.20389 | 432 ft | 9 kts | 53° |
| 2026-04-21 12:23 | 48.16781 | 17.20472 | 431 ft | 14 kts | 44° |
| 2026-04-21 12:23 | 48.16859 | 17.20594 | 417 ft | 18 kts | 46° |
| 2026-04-21 12:23 | 48.16955 | 17.20747 | 426 ft | 21 kts | 47° |
| 2026-04-21 12:24 | 48.17019 | 17.20871 | 421 ft | 12 kts | 89° |
| 2026-04-21 12:24 | 48.16963 | 17.20970 | 427 ft | 13 kts | 135° |
| 2026-04-21 12:24 | 48.16890 | 17.21076 | 429 ft | 16 kts | 134° |
| 2026-04-21 12:24 | 48.16819 | 17.21197 | 425 ft | 15 kts | 134° |
| 2026-04-21 12:25 | 48.16740 | 17.21318 | 430 ft | 17 kts | 134° |
| 2026-04-21 12:25 | 48.16653 | 17.21452 | 424 ft | 19 kts | 134° |
| 2026-04-21 12:25 | 48.16559 | 17.21600 | 418 ft | 21 kts | 134° |
| 2026-04-21 12:25 | 48.16457 | 17.21760 | 421 ft | 22 kts | 134° |
| 2026-04-21 12:26 | 48.16348 | 17.21924 | 424 ft | 23 kts | 135° |
| 2026-04-21 12:26 | 48.16242 | 17.22092 | 426 ft | 19 kts | 134° |
| 2026-04-21 12:26 | 48.16145 | 17.22244 | 430 ft | 21 kts | 134° |
| 2026-04-21 12:26 | 48.16039 | 17.22405 | 421 ft | 22 kts | 134° |
| 2026-04-21 12:27 | 48.15929 | 17.22574 | 430 ft | 23 kts | 133° |
| 2026-04-21 12:27 | 48.15817 | 17.22749 | 430 ft | 23 kts | 134° |
| 2026-04-21 12:27 | 48.15717 | 17.22917 | 430 ft | 20 kts | 120° |
| 2026-04-21 12:27 | 48.15679 | 17.23108 | 424 ft | 19 kts | 90° |
| 2026-04-21 12:28 | 48.15722 | 17.23209 | 421 ft | 10 kts | 44° |
| 2026-04-21 12:28 | 48.15763 | 17.23209 | 427 ft | 6 kts | 320° |
| 2026-04-21 12:28 | 48.15795 | 17.23160 | 430 ft | 9 kts | 314° |
| 2026-04-21 12:28 | 48.15968 | 17.22892 | 429 ft | 72 kts | 314° |
| 2026-04-21 12:29 | 48.16472 | 17.22104 | 421 ft | 135 kts | 313° |
| 2026-04-21 12:29 | 48.17176 | 17.20985 | 903 ft | 152 kts | 311° |
| 2026-04-21 12:29 | 48.17943 | 17.19846 | 1689 ft | 157 kts | 327° |
| 2026-04-21 12:29 | 48.19056 | 17.19314 | 2096 ft | 184 kts | 358° |
| 2026-04-21 12:30 | 48.20314 | 17.19787 | 2662 ft | 196 kts | 30° |
| 2026-04-21 12:30 | 48.21201 | 17.21371 | 3219 ft | 210 kts | 68° |
| 2026-04-21 12:30 | 48.21462 | 17.23523 | 3985 ft | 208 kts | 77° |
| 2026-04-21 12:30 | 48.21690 | 17.25650 | 4742 ft | 207 kts | 77° |
| 2026-04-21 12:31 | 48.21919 | 17.27789 | 5415 ft | 209 kts | 77° |
| 2026-04-21 12:31 | 48.22149 | 17.29964 | 6059 ft | 213 kts | 77° |
| 2026-04-21 12:31 | 48.22380 | 17.32162 | 6703 ft | 214 kts | 77° |
| 2026-04-21 12:31 | 48.22611 | 17.34389 | 7303 ft | 218 kts | 79° |
| 2026-04-21 12:32 | 48.22460 | 17.36698 | 7724 ft | 236 kts | 105° |
| 2026-04-21 12:32 | 48.21841 | 17.39093 | 8036 ft | 253 kts | 109° |
| 2026-04-21 12:32 | 48.21189 | 17.41577 | 8590 ft | 260 kts | 109° |
| 2026-04-21 12:32 | 48.20510 | 17.44200 | 8965 ft | 278 kts | 109° |
| 2026-04-21 12:33 | 48.19800 | 17.46953 | 9619 ft | 286 kts | 109° |
| 2026-04-21 12:33 | 48.19059 | 17.49744 | 10337 ft | 293 kts | 114° |
| 2026-04-21 12:33 | 48.17819 | 17.52311 | 10549 ft | 319 kts | 134° |
| 2026-04-21 12:33 | 48.16086 | 17.54525 | 10942 ft | 335 kts | 144° |
| 2026-04-21 12:34 | 48.13937 | 17.55939 | 11603 ft | 341 kts | 166° |
| 2026-04-21 12:34 | 48.11608 | 17.56668 | 12482 ft | 343 kts | 169° |
| 2026-04-21 12:34 | 48.09247 | 17.57300 | 13280 ft | 347 kts | 169° |
| 2026-04-21 12:34 | 48.06858 | 17.57937 | 14055 ft | 351 kts | 169° |
| 2026-04-21 12:35 | 48.04444 | 17.58604 | 14775 ft | 355 kts | 169° |
| 2026-04-21 12:35 | 48.02002 | 17.59305 | 15474 ft | 360 kts | 169° |
| 2026-04-21 12:35 | 47.99525 | 17.60035 | 16183 ft | 365 kts | 169° |
| 2026-04-21 12:35 | 47.97026 | 17.60781 | 16922 ft | 369 kts | 169° |
| 2026-04-21 12:36 | 47.94496 | 17.61543 | 17649 ft | 373 kts | 170° |
| 2026-04-21 12:36 | 47.91942 | 17.62314 | 18359 ft | 377 kts | 170° |
| 2026-04-21 12:36 | 47.89357 | 17.63094 | 19003 ft | 381 kts | 170° |
| 2026-04-21 12:36 | 47.86750 | 17.63880 | 19640 ft | 384 kts | 170° |
| 2026-04-21 12:37 | 47.84118 | 17.64672 | 20257 ft | 388 kts | 170° |
| 2026-04-21 12:37 | 47.81463 | 17.65469 | 20878 ft | 391 kts | 171° |
| 2026-04-21 12:37 | 47.78792 | 17.65817 | 21426 ft | 392 kts | 187° |
| 2026-04-21 12:37 | 47.76163 | 17.64872 | 22034 ft | 389 kts | 204° |
| 2026-04-21 12:38 | 47.73662 | 17.63335 | 22678 ft | 390 kts | 206° |
| 2026-04-21 12:38 | 47.71158 | 17.61720 | 23257 ft | 394 kts | 207° |
| 2026-04-21 12:38 | 47.68634 | 17.60080 | 23794 ft | 398 kts | 207° |
| 2026-04-21 12:38 | 47.66085 | 17.58438 | 24290 ft | 401 kts | 206° |
| 2026-04-21 12:39 | 47.63515 | 17.56801 | 24777 ft | 404 kts | 206° |
| 2026-04-21 12:39 | 47.60919 | 17.55164 | 25246 ft | 407 kts | 206° |
| 2026-04-21 12:39 | 47.58309 | 17.53528 | 25710 ft | 409 kts | 206° |
| 2026-04-21 12:39 | 47.55674 | 17.51884 | 26161 ft | 412 kts | 206° |
| 2026-04-21 12:40 | 47.53018 | 17.50230 | 26635 ft | 415 kts | 206° |
| 2026-04-21 12:40 | 47.50344 | 17.48568 | 27074 ft | 418 kts | 206° |
| 2026-04-21 12:40 | 47.47653 | 17.46896 | 27494 ft | 421 kts | 206° |
| 2026-04-21 12:40 | 47.44943 | 17.45215 | 27916 ft | 424 kts | 206° |
| 2026-04-21 12:41 | 47.42214 | 17.43523 | 28328 ft | 426 kts | 206° |
| 2026-04-21 12:41 | 47.39471 | 17.41824 | 28732 ft | 429 kts | 206° |
| 2026-04-21 12:41 | 47.36711 | 17.40117 | 29112 ft | 432 kts | 206° |
| 2026-04-21 12:41 | 47.33931 | 17.38399 | 29500 ft | 434 kts | 206° |
| 2026-04-21 12:42 | 47.31140 | 17.36675 | 29875 ft | 436 kts | 206° |
| 2026-04-21 12:42 | 47.28333 | 17.34945 | 30212 ft | 439 kts | 206° |
| 2026-04-21 12:42 | 47.25496 | 17.33230 | 30492 ft | 442 kts | 204° |
| 2026-04-21 12:42 | 47.22535 | 17.31901 | 30758 ft | 448 kts | 198° |
| 2026-04-21 12:43 | 47.19506 | 17.30778 | 31036 ft | 450 kts | 197° |
| 2026-04-21 12:43 | 47.16456 | 17.29705 | 31332 ft | 452 kts | 197° |
| 2026-04-21 12:43 | 47.13394 | 17.28636 | 31700 ft | 451 kts | 198° |
| 2026-04-21 12:43 | 47.10385 | 17.27574 | 32072 ft | 450 kts | 198° |
| 2026-04-21 12:44 | 47.07343 | 17.26484 | 32412 ft | 451 kts | 198° |
| 2026-04-21 12:44 | 47.04257 | 17.25363 | 32722 ft | 451 kts | 199° |
| 2026-04-21 12:44 | 47.01209 | 17.24248 | 33056 ft | 451 kts | 199° |
| 2026-04-21 12:44 | 46.98201 | 17.23145 | 33414 ft | 451 kts | 199° |
| 2026-04-21 12:45 | 46.95164 | 17.22030 | 33757 ft | 451 kts | 199° |
| 2026-04-21 12:45 | 46.92115 | 17.20912 | 34067 ft | 452 kts | 199° |
| 2026-04-21 12:45 | 46.89027 | 17.19780 | 34341 ft | 452 kts | 199° |
| 2026-04-21 12:45 | 46.85983 | 17.18668 | 34635 ft | 451 kts | 199° |
| 2026-04-21 12:46 | 46.82937 | 17.17557 | 34917 ft | 450 kts | 199° |
| 2026-04-21 12:46 | 46.79900 | 17.16450 | 35178 ft | 450 kts | 199° |
| 2026-04-21 12:46 | 46.76897 | 17.15357 | 35440 ft | 450 kts | 199° |
| 2026-04-21 12:46 | 46.73862 | 17.14253 | 35729 ft | 449 kts | 199° |
| 2026-04-21 12:47 | 46.70831 | 17.13152 | 35998 ft | 449 kts | 199° |
| 2026-04-21 12:47 | 46.67803 | 17.12054 | 36243 ft | 449 kts | 199° |
| 2026-04-21 12:47 | 46.64775 | 17.10957 | 36487 ft | 449 kts | 199° |
| 2026-04-21 12:47 | 46.61744 | 17.09860 | 36757 ft | 448 kts | 198° |
| 2026-04-21 12:48 | 46.58721 | 17.08767 | 37008 ft | 448 kts | 198° |
| 2026-04-21 12:48 | 46.55699 | 17.07676 | 37215 ft | 448 kts | 198° |
| 2026-04-21 12:48 | 46.52674 | 17.06585 | 37435 ft | 448 kts | 198° |
| 2026-04-21 12:48 | 46.49647 | 17.05494 | 37685 ft | 447 kts | 198° |
| 2026-04-21 12:49 | 46.46635 | 17.04410 | 37919 ft | 447 kts | 198° |
| 2026-04-21 12:49 | 46.43613 | 17.03323 | 38070 ft | 448 kts | 198° |
| 2026-04-21 12:49 | 46.40576 | 17.02231 | 38049 ft | 451 kts | 198° |
| 2026-04-21 12:50 | 46.34478 | 17.00046 | 38059 ft | 451 kts | 198° |
| 2026-04-21 12:50 | 46.28434 | 16.97886 | 38049 ft | 444 kts | 198° |
| 2026-04-21 12:51 | 46.23398 | 16.96436 | 38044 ft | 447 kts | 189° |
| 2026-04-21 12:51 | 46.17143 | 16.96642 | 38054 ft | 450 kts | 181° |
| 2026-04-21 12:52 | 46.10888 | 16.97228 | 38050 ft | 450 kts | 181° |
| 2026-04-21 12:52 | 46.04626 | 16.97775 | 38056 ft | 451 kts | 181° |
| 2026-04-21 12:53 | 45.98348 | 16.98272 | 38055 ft | 453 kts | 181° |
| 2026-04-21 12:53 | 45.92042 | 16.98751 | 38058 ft | 455 kts | 181° |
| 2026-04-21 12:54 | 45.85708 | 16.99229 | 38047 ft | 457 kts | 182° |
| 2026-04-21 12:54 | 45.79352 | 16.99711 | 38055 ft | 458 kts | 182° |
| 2026-04-21 12:55 | 45.72970 | 17.00194 | 38050 ft | 460 kts | 182° |
| 2026-04-21 12:55 | 45.66586 | 17.00677 | 38039 ft | 460 kts | 182° |
| 2026-04-21 12:56 | 45.60195 | 17.01160 | 38039 ft | 459 kts | 182° |
| 2026-04-21 12:56 | 45.53824 | 17.01639 | 38043 ft | 458 kts | 182° |
| 2026-04-21 12:57 | 45.47475 | 17.02116 | 38031 ft | 456 kts | 182° |
| 2026-04-21 12:57 | 45.41143 | 17.02591 | 38041 ft | 454 kts | 182° |
| 2026-04-21 12:58 | 45.34843 | 17.03061 | 38051 ft | 453 kts | 182° |
| 2026-04-21 12:58 | 45.28557 | 17.03529 | 38049 ft | 452 kts | 182° |
| 2026-04-21 12:59 | 45.22283 | 17.03995 | 38048 ft | 451 kts | 182° |
| 2026-04-21 12:59 | 45.16024 | 17.04459 | 38046 ft | 450 kts | 182° |
| 2026-04-21 13:00 | 45.09767 | 17.04921 | 38045 ft | 450 kts | 182° |
| 2026-04-21 13:00 | 45.03517 | 17.05383 | 38044 ft | 450 kts | 182° |
| 2026-04-21 13:01 | 44.97256 | 17.05844 | 38041 ft | 451 kts | 182° |
| 2026-04-21 13:01 | 44.91025 | 17.06385 | 38049 ft | 452 kts | 181° |
| 2026-04-21 13:02 | 44.84732 | 17.07019 | 38036 ft | 454 kts | 181° |
| 2026-04-21 13:02 | 44.75264 | 17.07965 | 38027 ft | 456 kts | 181° |
| 2026-04-21 13:03 | 44.68920 | 17.08582 | 38025 ft | 457 kts | 181° |
| 2026-04-21 13:03 | 44.62560 | 17.09196 | 38003 ft | 458 kts | 182° |
| 2026-04-21 13:04 | 44.56193 | 17.09811 | 37992 ft | 459 kts | 182° |
| 2026-04-21 13:04 | 44.49833 | 17.10423 | 37999 ft | 458 kts | 182° |
| 2026-04-21 13:05 | 44.43470 | 17.11035 | 37999 ft | 458 kts | 182° |
| 2026-04-21 13:05 | 44.37105 | 17.11644 | 37994 ft | 459 kts | 182° |
| 2026-04-21 13:06 | 44.30731 | 17.12253 | 37977 ft | 459 kts | 182° |
| 2026-04-21 13:06 | 44.24362 | 17.12862 | 37984 ft | 459 kts | 182° |
| 2026-04-21 13:07 | 44.17990 | 17.13469 | 37964 ft | 459 kts | 182° |
| 2026-04-21 13:07 | 44.11627 | 17.14074 | 37963 ft | 458 kts | 182° |
| 2026-04-21 13:08 | 44.05274 | 17.14676 | 37967 ft | 457 kts | 182° |
| 2026-04-21 13:08 | 43.98978 | 17.15272 | 37950 ft | 456 kts | 182° |
| 2026-04-21 13:09 | 43.92651 | 17.15870 | 37967 ft | 455 kts | 182° |
| 2026-04-21 13:09 | 43.86325 | 17.16464 | 37952 ft | 456 kts | 182° |
| 2026-04-21 13:10 | 43.80004 | 17.17059 | 37941 ft | 454 kts | 182° |
| 2026-04-21 13:10 | 43.73692 | 17.17651 | 37941 ft | 455 kts | 182° |
| 2026-04-21 13:11 | 43.67372 | 17.18242 | 37955 ft | 456 kts | 182° |
| 2026-04-21 13:11 | 43.61036 | 17.18834 | 37962 ft | 457 kts | 182° |
| 2026-04-21 13:12 | 43.54681 | 17.19426 | 37940 ft | 458 kts | 182° |
| 2026-04-21 13:12 | 43.48312 | 17.19974 | 37943 ft | 457 kts | 185° |
| 2026-04-21 13:13 | 43.41964 | 17.20054 | 37950 ft | 456 kts | 187° |
| 2026-04-21 13:13 | 43.35666 | 17.19984 | 37940 ft | 455 kts | 187° |
| 2026-04-21 13:14 | 43.29285 | 17.19948 | 37947 ft | 455 kts | 186° |
| 2026-04-21 13:14 | 43.22943 | 17.19951 | 37935 ft | 456 kts | 186° |
| 2026-04-21 13:15 | 43.16649 | 17.19967 | 37936 ft | 455 kts | 186° |
| 2026-04-21 13:15 | 43.10325 | 17.19983 | 37938 ft | 454 kts | 186° |
| 2026-04-21 13:16 | 43.04016 | 17.19997 | 37937 ft | 453 kts | 186° |
| 2026-04-21 13:16 | 42.97721 | 17.20010 | 37937 ft | 452 kts | 186° |
| 2026-04-21 13:17 | 42.91448 | 17.20023 | 37944 ft | 450 kts | 186° |
| 2026-04-21 13:17 | 42.88307 | 17.20028 | 37617 ft | 455 kts | 186° |
| 2026-04-21 13:17 | 42.85141 | 17.20033 | 37145 ft | 453 kts | 186° |
| 2026-04-21 13:18 | 42.81989 | 17.20041 | 36605 ft | 452 kts | 186° |
| 2026-04-21 13:18 | 42.78853 | 17.20049 | 36054 ft | 451 kts | 186° |
| 2026-04-21 13:18 | 42.75715 | 17.20056 | 35450 ft | 451 kts | 186° |
| 2026-04-21 13:18 | 42.72574 | 17.20062 | 34876 ft | 452 kts | 186° |
| 2026-04-21 13:19 | 42.69425 | 17.20067 | 34259 ft | 453 kts | 186° |
| 2026-04-21 13:19 | 42.66267 | 17.20072 | 33551 ft | 456 kts | 186° |
| 2026-04-21 13:19 | 42.63087 | 17.20079 | 32866 ft | 456 kts | 186° |
| 2026-04-21 13:19 | 42.59930 | 17.20088 | 32429 ft | 451 kts | 186° |
| 2026-04-21 13:20 | 42.56803 | 17.20097 | 31942 ft | 448 kts | 186° |
| 2026-04-21 13:20 | 42.53699 | 17.20108 | 31486 ft | 445 kts | 186° |
| 2026-04-21 13:20 | 42.50613 | 17.20235 | 31029 ft | 443 kts | 184° |
| 2026-04-21 13:20 | 42.47546 | 17.20467 | 30590 ft | 441 kts | 183° |
| 2026-04-21 13:21 | 42.44497 | 17.20737 | 30149 ft | 438 kts | 183° |
| 2026-04-21 13:21 | 42.41468 | 17.21008 | 29657 ft | 435 kts | 183° |
| 2026-04-21 13:21 | 42.38459 | 17.21269 | 29173 ft | 430 kts | 183° |
| 2026-04-21 13:21 | 42.35488 | 17.21515 | 28727 ft | 426 kts | 183° |
| 2026-04-21 13:22 | 42.32550 | 17.21750 | 28278 ft | 421 kts | 183° |
| 2026-04-21 13:22 | 42.29672 | 17.21975 | 27830 ft | 418 kts | 184° |
| 2026-04-21 13:22 | 42.26786 | 17.22198 | 27389 ft | 414 kts | 184° |
| 2026-04-21 13:22 | 42.23921 | 17.22418 | 26940 ft | 411 kts | 184° |
| 2026-04-21 13:23 | 42.21080 | 17.22635 | 26507 ft | 407 kts | 184° |
| 2026-04-21 13:23 | 42.18260 | 17.22852 | 26074 ft | 404 kts | 184° |
| 2026-04-21 13:23 | 42.15457 | 17.23067 | 25654 ft | 402 kts | 184° |
| 2026-04-21 13:23 | 42.12679 | 17.23280 | 25217 ft | 399 kts | 184° |
| 2026-04-21 13:24 | 42.09915 | 17.23491 | 24803 ft | 397 kts | 184° |
| 2026-04-21 13:24 | 42.07166 | 17.23702 | 24380 ft | 395 kts | 184° |
| 2026-04-21 13:24 | 42.04432 | 17.23911 | 23961 ft | 393 kts | 184° |
| 2026-04-21 13:24 | 42.01709 | 17.24119 | 23547 ft | 391 kts | 184° |
| 2026-04-21 13:25 | 41.99002 | 17.24327 | 23051 ft | 389 kts | 183° |
| 2026-04-21 13:25 | 41.96310 | 17.24529 | 22597 ft | 385 kts | 185° |
| 2026-04-21 13:25 | 41.93712 | 17.24166 | 22187 ft | 367 kts | 203° |
| 2026-04-21 13:25 | 41.91398 | 17.22904 | 21776 ft | 353 kts | 217° |
| 2026-04-21 13:26 | 41.89467 | 17.20990 | 21380 ft | 341 kts | 227° |
| 2026-04-21 13:26 | 41.87709 | 17.18881 | 20963 ft | 338 kts | 229° |
| 2026-04-21 13:26 | 41.85979 | 17.16762 | 20554 ft | 335 kts | 229° |
| 2026-04-21 13:26 | 41.84261 | 17.14666 | 20156 ft | 334 kts | 228° |
| 2026-04-21 13:27 | 41.82539 | 17.12584 | 19757 ft | 332 kts | 228° |
| 2026-04-21 13:27 | 41.80823 | 17.10526 | 19363 ft | 330 kts | 228° |
| 2026-04-21 13:27 | 41.79109 | 17.08479 | 18965 ft | 329 kts | 227° |
| 2026-04-21 13:27 | 41.77402 | 17.06447 | 18579 ft | 328 kts | 227° |
| 2026-04-21 13:28 | 41.75700 | 17.04426 | 18180 ft | 327 kts | 227° |
| 2026-04-21 13:28 | 41.73998 | 17.02410 | 17734 ft | 326 kts | 226° |
| 2026-04-21 13:28 | 41.72074 | 17.00766 | 17294 ft | 336 kts | 207° |
| 2026-04-21 13:28 | 41.69843 | 16.99816 | 16930 ft | 336 kts | 202° |
| 2026-04-21 13:29 | 41.67591 | 16.98990 | 16522 ft | 335 kts | 201° |
| 2026-04-21 13:29 | 41.65348 | 16.98183 | 16136 ft | 333 kts | 201° |
| 2026-04-21 13:29 | 41.63150 | 16.97382 | 15752 ft | 331 kts | 201° |
| 2026-04-21 13:29 | 41.60930 | 16.96557 | 15211 ft | 333 kts | 201° |
| 2026-04-21 13:30 | 41.58692 | 16.95715 | 14754 ft | 334 kts | 201° |
| 2026-04-21 13:30 | 41.56627 | 16.94936 | 14405 ft | 327 kts | 201° |
| 2026-04-21 13:30 | 41.54448 | 16.94115 | 13740 ft | 325 kts | 201° |
| 2026-04-21 13:30 | 41.52257 | 16.93255 | 12866 ft | 328 kts | 203° |
| 2026-04-21 13:31 | 41.50175 | 16.92269 | 12667 ft | 315 kts | 205° |
| 2026-04-21 13:31 | 41.48147 | 16.91243 | 12357 ft | 310 kts | 206° |
| 2026-04-21 13:31 | 41.46139 | 16.90217 | 11986 ft | 308 kts | 206° |
| 2026-04-21 13:31 | 41.44143 | 16.89205 | 11621 ft | 306 kts | 206° |
| 2026-04-21 13:32 | 41.42162 | 16.88207 | 11255 ft | 304 kts | 205° |
| 2026-04-21 13:32 | 41.40187 | 16.87219 | 10884 ft | 302 kts | 205° |
| 2026-04-21 13:32 | 41.38228 | 16.86243 | 10525 ft | 300 kts | 205° |
| 2026-04-21 13:32 | 41.36288 | 16.85280 | 10333 ft | 293 kts | 205° |
| 2026-04-21 13:33 | 41.34408 | 16.84351 | 10192 ft | 284 kts | 205° |
| 2026-04-21 13:33 | 41.32585 | 16.83450 | 10069 ft | 275 kts | 205° |
| 2026-04-21 13:33 | 41.30821 | 16.82578 | 9948 ft | 266 kts | 206° |
| 2026-04-21 13:33 | 41.29264 | 16.81385 | 9695 ft | 254 kts | 227° |
| 2026-04-21 13:34 | 41.28177 | 16.79607 | 9485 ft | 245 kts | 240° |
| 2026-04-21 13:34 | 41.27306 | 16.77673 | 9205 ft | 243 kts | 243° |
| 2026-04-21 13:34 | 41.26475 | 16.75731 | 8930 ft | 241 kts | 243° |
| 2026-04-21 13:34 | 41.25646 | 16.73800 | 8652 ft | 240 kts | 243° |
| 2026-04-21 13:35 | 41.24812 | 16.71882 | 8375 ft | 239 kts | 242° |
| 2026-04-21 13:35 | 41.23976 | 16.69979 | 8102 ft | 238 kts | 242° |
| 2026-04-21 13:35 | 41.23139 | 16.68088 | 7829 ft | 237 kts | 242° |
| 2026-04-21 13:35 | 41.22291 | 16.66179 | 7468 ft | 240 kts | 242° |
| 2026-04-21 13:36 | 41.21449 | 16.64288 | 7270 ft | 236 kts | 241° |
| 2026-04-21 13:36 | 41.20633 | 16.62397 | 6988 ft | 235 kts | 246° |
| 2026-04-21 13:36 | 41.20016 | 16.60400 | 6731 ft | 233 kts | 251° |
| 2026-04-21 13:36 | 41.19463 | 16.58372 | 6468 ft | 233 kts | 251° |
| 2026-04-21 13:37 | 41.18911 | 16.56348 | 6208 ft | 233 kts | 251° |
| 2026-04-21 13:37 | 41.18352 | 16.54332 | 5935 ft | 233 kts | 250° |
| 2026-04-21 13:37 | 41.17785 | 16.52321 | 5642 ft | 233 kts | 250° |
| 2026-04-21 13:37 | 41.17210 | 16.50303 | 5324 ft | 234 kts | 250° |
| 2026-04-21 13:38 | 41.16645 | 16.48322 | 5253 ft | 225 kts | 250° |
| 2026-04-21 13:38 | 41.16100 | 16.46420 | 5193 ft | 216 kts | 250° |
| 2026-04-21 13:38 | 41.15499 | 16.44677 | 5078 ft | 209 kts | 233° |
| 2026-04-21 13:38 | 41.14371 | 16.43551 | 5046 ft | 201 kts | 205° |
| 2026-04-21 13:39 | 41.13014 | 16.43230 | 4852 ft | 201 kts | 181° |
| 2026-04-21 13:39 | 41.11638 | 16.43640 | 4537 ft | 205 kts | 165° |
| 2026-04-21 13:39 | 41.10304 | 16.44298 | 4220 ft | 204 kts | 163° |
| 2026-04-21 13:39 | 41.08978 | 16.44974 | 4084 ft | 206 kts | 162° |
| 2026-04-21 13:40 | 41.07637 | 16.45662 | 4031 ft | 207 kts | 159° |
| 2026-04-21 13:40 | 41.06592 | 16.46937 | 4032 ft | 211 kts | 116° |
| 2026-04-21 13:40 | 41.06450 | 16.48831 | 3918 ft | 210 kts | 78° |
| 2026-04-21 13:40 | 41.06691 | 16.50086 | 3910 ft | 204 kts | 74° |
| 2026-04-21 13:41 | 41.07109 | 16.51950 | 3671 ft | 215 kts | 71° |
| 2026-04-21 13:41 | 41.07606 | 16.53830 | 3411 ft | 216 kts | 69° |
| 2026-04-21 13:41 | 41.08123 | 16.55680 | 3130 ft | 212 kts | 69° |
| 2026-04-21 13:41 | 41.08634 | 16.57500 | 2797 ft | 209 kts | 69° |
| 2026-04-21 13:42 | 41.09126 | 16.59254 | 2527 ft | 201 kts | 68° |
| 2026-04-21 13:42 | 41.09602 | 16.60954 | 2266 ft | 188 kts | 68° |
| 2026-04-21 13:42 | 41.10037 | 16.62506 | 2038 ft | 174 kts | 68° |
| 2026-04-21 13:42 | 41.10434 | 16.63922 | 1800 ft | 156 kts | 67° |
| 2026-04-21 13:43 | 41.10799 | 16.65223 | 1602 ft | 147 kts | 67° |
| 2026-04-21 13:43 | 41.11150 | 16.66471 | 1415 ft | 142 kts | 67° |
| 2026-04-21 13:43 | 41.11498 | 16.67706 | 1232 ft | 144 kts | 67° |
| 2026-04-21 13:43 | 41.11849 | 16.68953 | 1038 ft | 144 kts | 67° |
| 2026-04-21 13:44 | 41.12193 | 16.70178 | 853 ft | 139 kts | 68° |
| 2026-04-21 13:44 | 41.12535 | 16.71390 | 644 ft | 141 kts | 69° |
| 2026-04-21 13:44 | 41.12888 | 16.72593 | 457 ft | 140 kts | 71° |
| 2026-04-21 13:44 | 41.13218 | 16.73801 | 269 ft | 141 kts | 70° |
| 2026-04-21 13:45 | 41.13566 | 16.75014 | 138 ft | 133 kts | 70° |
| 2026-04-21 13:45 | 41.13841 | 16.76019 | 135 ft | 95 kts | 70° |
| 2026-04-21 13:45 | 41.13996 | 16.76579 | 124 ft | 27 kts | 85° |
| 2026-04-21 13:45 | 41.13961 | 16.76717 | 123 ft | 8 kts | 152° |
| 2026-04-21 13:46 | 41.13912 | 16.76698 | 123 ft | 8 kts | 213° |
| 2026-04-21 13:46 | 41.13867 | 16.76658 | 127 ft | 8 kts | 214° |
| 2026-04-21 13:46 | 41.13827 | 16.76616 | 133 ft | 7 kts | 226° |
| 2026-04-21 13:46 | 41.13794 | 16.76553 | 134 ft | 9 kts | 207° |
| 2026-04-21 13:47 | 41.13732 | 16.76565 | 135 ft | 9 kts | 181° |
| 2026-04-21 13:47 | 41.13673 | 16.76532 | 135 ft | 9 kts | 207° |
| 2026-04-21 13:47 | 41.13638 | 16.76486 | 135 ft | 4 kts | 202° |
| 2026-04-21 13:47 | 41.13608 | 16.76497 | 135 ft | 5 kts | 159° |
| 2026-04-21 13:48 | 41.13576 | 16.76513 | 135 ft | 2 kts | 159° |
| 2026-04-21 13:48 | 41.13573 | 16.76514 | 135 ft | 0 kts | 159° |